Time;durP1;ratioP1;P1;durP2;ratioP2;P2;SDS_P1;SDS_P2;PMS_P1;PMS_P2;Temp;Humidity;BMP_temperature;BMP_pressure;BME280_temperature;BME280_humidity;BME280_pressure;Samples;Min_cycle;Max_cycle;Signal;HPM_P1;HPM_P2
2021/12/27 00:00:10;;;;;;;;;;;4.50;1.40;;;5.47;100.00;94337.36;653818;216;24844;-75
2021/12/27 00:02:54;;;;;;;;;;;4.50;1.40;;;5.48;100.00;94338.15;654272;216;24812;-77
2021/12/27 00:05:35;;;;;;;;;;;4.50;1.40;;;5.56;100.00;94332.81;654326;212;24827;-77
2021/12/27 00:08:17;;;;;;;;;;;4.50;1.40;;;5.65;100.00;94333.48;654017;216;24716;-77
2021/12/27 00:10:58;;;;;;;;;;;4.50;1.40;;;5.63;100.00;94333.41;654284;216;25299;-75
2021/12/27 00:13:40;;;;;;;;;;;4.50;1.40;;;5.60;100.00;94329.86;654297;216;24762;-76
2021/12/27 00:16:21;;;;;;;;;;;4.50;1.40;;;5.59;100.00;94329.25;653405;212;24903;-76
2021/12/27 00:19:02;;;;;;;;;;;4.50;1.40;;;5.53;100.00;94330.16;653145;216;24740;-75
2021/12/27 00:21:44;;;;;;;;;;;4.50;1.40;;;5.62;100.00;94324.88;651058;216;24812;-75
2021/12/27 00:24:25;;;;;;;;;;;4.50;1.40;;;5.50;100.00;94326.49;653293;216;25379;-75
2021/12/27 00:27:07;;;;;;;;;;;4.40;1.40;;;5.45;100.00;94329.87;649643;216;24811;-75
2021/12/27 00:29:52;;;;;;;;;;;4.50;1.40;;;5.35;100.00;94322.95;650058;215;24919;-74
2021/12/27 00:32:33;;;;;;;;;;;4.50;1.40;;;5.47;100.00;94321.67;654118;212;25257;-76
2021/12/27 00:35:51;;;;;;;;;;;4.40;1.40;;;5.41;100.00;94327.33;653936;212;24824;-76
2021/12/27 00:38:33;;;;;;;;;;;4.40;1.40;;;5.36;100.00;94325.09;653892;216;24812;-78
2021/12/27 00:41:17;;;;;;;;;;;4.40;1.40;;;5.33;100.00;94325.19;655333;216;24829;-77
2021/12/27 00:44:04;;;;;;;;;;;4.40;1.40;;;5.35;100.00;94322.53;651409;216;24812;-76
2021/12/27 00:46:49;;;;;;;;;;;4.40;1.40;;;5.35;100.00;94318.28;654160;212;24991;-75
2021/12/27 00:49:30;;;;;;;;;;;4.40;1.40;;;5.38;100.00;94319.78;650050;214;24820;-76
2021/12/27 00:52:11;;;;;;;;;;;4.40;1.40;;;5.45;100.00;94312.20;653315;212;24914;-76
2021/12/27 00:54:55;;;;;;;;;;;4.30;1.40;;;5.39;100.00;94312.31;655168;213;24809;-77
2021/12/27 00:57:37;;;;;;;;;;;4.30;1.40;;;5.31;100.00;94317.34;654565;212;24824;-76
2021/12/27 01:00:18;;;;;;;;;;;4.20;1.40;;;5.28;100.00;94315.35;650157;216;25345;-77
2021/12/27 01:02:59;;;;;;;;;;;4.10;1.40;;;5.30;100.00;94314.63;653100;216;24895;-77
2021/12/27 01:05:44;;;;;;;;;;;4.10;1.40;;;5.30;100.00;94320.32;617007;229;24946;-77
2021/12/27 01:08:25;;;;;;;;;;;4.10;1.40;;;5.28;100.00;94326.70;654739;216;24850;-74
2021/12/27 01:11:24;;;;;;;;;;;4.20;1.40;;;5.24;100.00;94329.89;652397;216;25093;-77
2021/12/27 01:14:03;;;;;;;;;;;4.20;1.40;;;5.26;100.00;94328.78;653520;212;24816;-77
2021/12/27 01:16:40;;;;;;;;;;;4.20;1.40;;;5.22;100.00;94331.44;654151;212;25137;-75
2021/12/27 01:19:21;;;;;;;;;;;4.20;1.40;;;5.25;100.00;94325.58;649600;214;24835;-75
2021/12/27 01:22:02;;;;;;;;;;;4.20;1.40;;;5.24;100.00;94325.97;654180;212;24822;-77
2021/12/27 01:24:44;;;;;;;;;;;4.30;1.40;;;5.27;100.00;94325.95;649909;217;25315;-77
2021/12/27 01:27:29;;;;;;;;;;;4.30;1.40;;;5.38;100.00;94326.30;653493;216;24744;-76
2021/12/27 01:30:12;;;;;;;;;;;4.30;1.40;;;5.38;100.00;94320.31;652795;216;24831;-74
2021/12/27 01:32:57;;;;;;;;;;;4.30;1.40;;;5.37;100.00;94319.38;622348;226;25116;-77
2021/12/27 01:35:54;;;;;;;1.40;1.30;;;4.30;1.40;;;5.36;100.00;94318.31;619858;226;32466;-77
2021/12/27 01:38:36;;;;;;;1.20;1.10;;;4.30;1.40;;;5.36;100.00;94318.86;647312;216;31990;-75
2021/12/27 01:41:17;;;;;;;1.50;1.40;;;4.30;1.40;;;5.37;100.00;94325.88;648207;212;31867;-77
2021/12/27 01:43:59;;;;;;;0.70;0.60;;;4.30;1.40;;;5.45;100.00;94319.28;647524;216;31591;-75
2021/12/27 01:46:41;;;;;;;0.70;0.70;;;4.30;1.40;;;5.45;100.00;94321.07;647138;216;42101;-78
2021/12/27 01:49:29;;;;;;;;;;;4.40;1.40;;;5.48;100.00;94313.89;652810;216;25633;-77
2021/12/27 01:52:13;;;;;;;;;;;4.40;1.40;;;5.41;100.00;94317.06;654129;216;24813;-75
2021/12/27 01:54:54;;;;;;;;;;;4.40;1.40;;;5.45;100.00;94304.39;653088;216;24824;-76
2021/12/27 01:57:37;;;;;;;;;;;4.40;1.40;;;5.48;100.00;94309.22;653691;216;24897;-77
2021/12/27 02:00:20;;;;;;;;;;;4.30;1.40;;;5.45;100.00;94299.46;627748;225;24868;-77
2021/12/27 02:03:04;;;;;;;;;;;4.30;1.40;;;5.31;100.00;94302.94;650719;216;24816;-77
2021/12/27 02:05:47;;;;;;;;;;;4.30;1.40;;;5.27;100.00;94306.13;626718;225;24872;-77
2021/12/27 02:08:28;;;;;;;;;;;4.30;1.40;;;5.27;100.00;94301.94;653748;216;24828;-75
2021/12/27 02:11:13;;;;;;;;;;;4.30;1.40;;;5.26;100.00;94297.88;653735;216;25059;-77
2021/12/27 02:13:54;;;;;;;;;;;4.20;1.40;;;5.20;100.00;94299.64;654824;212;25165;-75
2021/12/27 02:16:36;;;;;;;;;;;4.30;1.40;;;5.24;100.00;94301.26;655268;216;24917;-76
2021/12/27 02:19:17;;;;;;;;;;;4.20;1.40;;;5.32;100.00;94300.23;649567;214;24821;-77
2021/12/27 02:21:58;;;;;;;;;;;4.20;1.40;;;5.25;100.00;94300.00;653560;216;24854;-77
2021/12/27 02:24:40;;;;;;;;;;;4.20;1.40;;;5.22;100.00;94305.38;654285;216;24929;-77
2021/12/27 02:27:21;;;;;;;;;;;4.20;1.40;;;5.21;100.00;94301.09;654860;216;24819;-76
2021/12/27 02:30:04;;;;;;;;;;;4.20;1.40;;;5.17;100.00;94296.16;653648;216;24816;-75
2021/12/27 02:32:47;;;;;;;;;;;4.20;1.40;;;5.15;100.00;94295.61;650267;216;24823;-74
2021/12/27 02:35:50;;;;;;;;;;;4.10;1.40;;;5.19;100.00;94291.44;653356;216;24790;-76
2021/12/27 02:38:32;;;;;;;;;;;4.20;1.40;;;5.32;100.00;94288.95;653948;212;24915;-75
2021/12/27 02:41:13;;;;;;;;;;;4.20;1.40;;;5.32;100.00;94291.05;653432;212;24908;-74
2021/12/27 02:43:54;;;;;;;;;;;4.20;1.40;;;5.38;100.00;94288.56;654030;216;24845;-74
2021/12/27 02:46:35;;;;;;;;;;;4.20;1.40;;;5.30;100.00;94291.72;649926;214;24732;-74
2021/12/27 02:49:17;;;;;;;;;;;4.20;1.40;;;5.23;100.00;94291.66;654388;212;25499;-76
2021/12/27 02:51:58;;;;;;;;;;;4.20;1.40;;;5.16;100.00;94296.77;649617;215;25412;-75
2021/12/27 02:54:40;;;;;;;;;;;4.20;1.40;;;5.22;100.00;94293.02;649634;216;24925;-77
2021/12/27 02:57:25;;;;;;;;;;;4.20;1.40;;;5.11;100.00;94293.06;654643;216;24918;-76
2021/12/27 03:00:07;;;;;;;;;;;4.10;1.40;;;5.10;100.00;94298.71;653920;212;24808;-75
2021/12/27 03:02:48;;;;;;;;;;;4.10;1.40;;;5.10;100.00;94296.62;654206;216;25629;-76
2021/12/27 03:05:33;;;;;;;;;;;4.10;1.40;;;5.04;100.00;94299.36;648252;212;24861;-76
2021/12/27 03:08:14;;;;;;;;;;;4.10;1.40;;;5.07;100.00;94297.53;654286;216;24738;-77
2021/12/27 03:10:55;;;;;;;;;;;4.10;1.40;;;5.12;100.00;94292.59;654301;212;24835;-75
2021/12/27 03:13:37;;;;;;;;;;;4.10;1.40;;;5.12;100.00;94284.53;654353;216;25114;-76
2021/12/27 03:16:19;;;;;;;;;;;4.10;1.40;;;5.10;100.00;94284.95;654467;216;24846;-75
2021/12/27 03:19:04;;;;;;;;;;;4.10;1.40;;;5.09;100.00;94286.91;655165;212;25414;-76
2021/12/27 03:21:45;;;;;;;;;;;4.10;1.40;;;5.11;100.00;94287.67;649409;215;24874;-76
2021/12/27 03:24:26;;;;;;;;;;;4.10;1.40;;;5.11;100.00;94281.45;654217;212;24815;-76
2021/12/27 03:27:08;;;;;;;;;;;4.10;1.40;;;5.10;100.00;94283.52;654074;216;24843;-76
2021/12/27 03:29:49;;;;;;;;;;;4.10;1.40;;;5.16;100.00;94281.77;654936;212;24764;-75
2021/12/27 03:32:35;;;;;;;;;;;4.20;1.40;;;5.14;100.00;94283.86;654074;212;25146;-75
2021/12/27 03:38:25;;;;;;;0.70;0.70;;;4.20;1.40;;;5.11;100.00;94275.64;647659;212;31586;-77
2021/12/27 03:41:07;;;;;;;0.70;0.65;;;4.20;1.40;;;5.13;100.00;94266.85;648182;216;31547;-75
2021/12/27 03:43:49;;;;;;;1.00;0.75;;;4.20;1.40;;;5.13;100.00;94268.77;646884;216;42179;-77
2021/12/27 03:46:30;;;;;;;;;;;4.20;1.40;;;5.11;100.00;94266.88;654073;214;24845;-76
2021/12/27 03:49:11;;;;;;;;;;;4.20;1.40;;;5.14;100.00;94263.97;654359;216;24738;-76
2021/12/27 03:51:52;;;;;;;;;;;4.20;1.40;;;5.15;100.00;94259.98;653617;212;24931;-75
2021/12/27 03:54:34;;;;;;;;;;;4.10;1.40;;;5.13;100.00;94259.70;623560;226;24815;-75
2021/12/27 03:57:16;;;;;;;;;;;4.10;1.40;;;5.23;100.00;94257.81;650795;216;24807;-77
2021/12/27 04:02:54;;;;;;;;;;;4.10;1.40;;;5.14;100.00;94258.98;653977;212;25010;-77
2021/12/27 04:05:36;;;;;;;;;;;4.10;1.40;;;5.06;100.00;94258.55;649748;216;24921;-76
2021/12/27 04:08:18;;;;;;;;;;;4.00;1.40;;;4.95;100.00;94259.39;654237;216;24822;-76
2021/12/27 04:11:01;;;;;;;;;;;3.90;1.40;;;4.88;100.00;94253.89;649108;217;24226;-76
2021/12/27 04:13:42;;;;;;;;;;;3.80;1.40;;;4.92;100.00;94251.83;655503;216;24828;-75
2021/12/27 04:16:31;;;;;;;;;;;3.90;1.40;;;4.94;100.00;94253.55;654104;216;25364;-75
2021/12/27 04:19:18;;;;;;;;;;;3.90;1.40;;;4.91;100.00;94253.87;654373;216;24884;-76
2021/12/27 04:22:03;;;;;;;;;;;3.80;1.40;;;4.75;100.00;94257.17;653989;212;24803;-76
2021/12/27 04:24:44;;;;;;;;;;;3.70;1.40;;;4.66;100.00;94258.79;653913;212;24804;-75
2021/12/27 04:27:25;;;;;;;;;;;3.50;1.40;;;4.61;100.00;94260.84;653706;216;24835;-76
2021/12/27 04:30:07;;;;;;;;;;;3.50;1.40;;;4.52;100.00;94262.19;653433;212;24805;-75
2021/12/27 04:32:49;;;;;;;;;;;3.40;1.40;;;4.47;100.00;94267.00;653429;216;25269;-76
2021/12/27 04:35:51;;;;;;;;;;;3.40;1.40;;;4.44;100.00;94261.64;654308;216;24840;-75
2021/12/27 04:38:32;;;;;;;;;;;3.50;1.40;;;4.46;100.00;94264.52;653968;212;24917;-77
2021/12/27 04:41:15;;;;;;;;;;;3.50;1.40;;;4.50;100.00;94268.60;655848;212;24845;-76
2021/12/27 04:43:56;;;;;;;;;;;3.50;1.40;;;4.58;100.00;94272.92;653348;212;24752;-75
2021/12/27 04:46:37;;;;;;;;;;;3.50;1.40;;;4.68;100.00;94278.07;653678;216;24255;-78
2021/12/27 04:49:25;;;;;;;;;;;3.60;1.40;;;4.72;100.00;94278.76;648572;216;24706;-74
2021/12/27 04:52:06;;;;;;;;;;;3.70;1.40;;;4.74;100.00;94269.33;622684;227;25856;-75
2021/12/27 04:54:47;;;;;;;;;;;3.70;1.40;;;4.75;100.00;94267.70;648634;215;25445;-75
2021/12/27 04:57:32;;;;;;;;;;;3.80;1.40;;;4.82;100.00;94265.46;652477;216;24845;-75
2021/12/27 05:00:13;;;;;;;;;;;3.80;1.40;;;4.81;100.00;94266.12;654015;216;24845;-76
2021/12/27 05:03:01;;;;;;;;;;;3.70;1.40;;;4.94;100.00;94266.49;654808;216;24838;-79
2021/12/27 05:05:48;;;;;;;;;;;3.80;1.40;;;4.96;100.00;94266.94;653034;216;24812;-75
2021/12/27 05:08:36;;;;;;;;;;;3.70;1.40;;;4.94;100.00;94269.34;639658;217;24747;-78
2021/12/27 05:11:23;;;;;;;;;;;3.80;1.40;;;4.92;100.00;94274.64;653495;212;24826;-74
2021/12/27 05:14:05;;;;;;;;;;;3.70;1.40;;;4.83;100.00;94273.77;653538;212;24736;-74
2021/12/27 05:16:47;;;;;;;;;;;3.70;1.40;;;4.94;100.00;94273.70;653927;216;24819;-75
2021/12/27 05:19:27;;;;;;;;;;;3.70;1.40;;;4.95;100.00;94267.98;652749;212;25048;-74
2021/12/27 05:22:09;;;;;;;;;;;3.60;1.40;;;4.82;100.00;94261.44;652956;212;24822;-74
2021/12/27 05:24:53;;;;;;;;;;;3.50;1.40;;;4.82;100.00;94261.27;654593;216;24756;-75
2021/12/27 05:27:34;;;;;;;;;;;3.60;1.40;;;4.80;100.00;94259.27;652920;216;24918;-74
2021/12/27 05:30:15;;;;;;;;;;;3.60;1.40;;;4.79;100.00;94263.38;653396;216;25283;-74
2021/12/27 05:33:00;;;;;;;;;;;3.70;1.40;;;4.88;100.00;94257.86;652820;216;24828;-74
2021/12/27 05:35:51;;;;;;;0.62;0.50;;;3.70;1.40;;;4.92;100.00;94259.29;646522;214;32326;-75
2021/12/27 05:38:33;;;;;;;0.40;0.25;;;3.80;1.40;;;4.88;100.00;94254.53;646872;212;32072;-75
2021/12/27 05:41:17;;;;;;;0.55;0.55;;;3.70;1.40;;;4.70;100.00;94251.95;647094;216;31537;-75
2021/12/27 05:43:59;;;;;;;;;;;3.70;1.40;;;4.71;100.00;94250.91;653674;216;24817;-74
2021/12/27 05:46:40;;;;;;;;;;;3.70;1.40;;;4.78;100.00;94252.81;653012;216;25075;-75
2021/12/27 05:49:22;;;;;;;;;;;3.70;1.40;;;4.84;100.00;94257.78;622292;224;24785;-75
2021/12/27 05:52:05;;;;;;;;;;;3.80;1.40;;;4.88;100.00;94252.98;653719;212;25073;-75
2021/12/27 05:54:52;;;;;;;;;;;3.80;1.40;;;4.80;100.00;94252.02;650270;216;24756;-79
2021/12/27 05:57:39;;;;;;;;;;;3.80;1.40;;;4.67;100.00;94245.25;651514;216;25039;-75
2021/12/27 06:00:21;;;;;;;;;;;3.60;1.40;;;4.62;100.00;94240.31;653677;216;24815;-75
2021/12/27 06:03:02;;;;;;;;;;;3.50;1.40;;;4.55;100.00;94241.08;653058;216;24838;-76
2021/12/27 06:05:46;;;;;;;;;;;3.40;1.40;;;4.52;100.00;94245.16;651111;216;24870;-74
2021/12/27 06:08:27;;;;;;;;;;;3.40;1.40;;;4.51;100.00;94241.95;653446;216;24817;-75
2021/12/27 06:11:09;;;;;;;;;;;3.50;1.40;;;4.45;100.00;94242.59;653645;212;24826;-75
2021/12/27 06:13:50;;;;;;;;;;;3.40;1.40;;;4.44;100.00;94241.53;653740;216;24933;-74
2021/12/27 06:16:31;;;;;;;;;;;3.40;1.40;;;4.39;100.00;94249.34;654179;212;24910;-75
2021/12/27 06:19:13;;;;;;;;;;;3.30;1.40;;;4.28;100.00;94243.53;653093;212;25741;-75
2021/12/27 06:21:54;;;;;;;;;;;3.20;1.40;;;4.23;100.00;94243.69;652762;216;24746;-74
2021/12/27 06:24:38;;;;;;;;;;;3.00;1.40;;;4.12;100.00;94244.53;654297;216;24821;-75
2021/12/27 06:27:20;;;;;;;;;;;2.90;1.40;;;3.96;100.00;94244.17;649817;217;25286;-75
2021/12/27 06:30:07;;;;;;;;;;;2.70;1.40;;;3.78;100.00;94236.70;623480;226;24893;-78
2021/12/27 06:32:52;;;;;;;;;;;2.60;1.40;;;3.64;100.00;94237.59;649505;216;25380;-74
2021/12/27 06:35:54;;;;;;;;;;;2.40;1.40;;;3.49;100.00;94234.30;622079;227;24868;-74
2021/12/27 06:38:35;;;;;;;;;;;2.20;1.40;;;3.42;100.00;94242.97;652104;212;24912;-74
2021/12/27 06:41:17;;;;;;;;;;;2.30;1.40;;;3.38;100.00;94239.44;648628;216;24763;-74
2021/12/27 06:43:58;;;;;;;;;;;2.20;1.40;;;3.32;100.00;94238.95;653278;216;24830;-74
2021/12/27 06:46:39;;;;;;;;;;;2.20;1.40;;;3.50;100.00;94239.48;652503;212;24885;-74
2021/12/27 06:49:21;;;;;;;;;;;2.40;1.40;;;3.60;100.00;94243.38;654100;216;24808;-75
2021/12/27 06:52:02;;;;;;;;;;;2.50;1.40;;;3.64;100.00;94242.62;652786;216;24814;-74
2021/12/27 06:54:43;;;;;;;;;;;2.50;1.40;;;3.70;100.00;94242.27;654254;212;24824;-75
2021/12/27 06:57:25;;;;;;;;;;;2.50;1.40;;;3.62;100.00;94237.73;653116;216;24815;-75
2021/12/27 07:00:07;;;;;;;;;;;2.40;1.40;;;3.64;100.00;94240.05;652829;216;24838;-75
2021/12/27 07:02:51;;;;;;;;;;;2.40;1.40;;;3.58;100.00;94239.98;652699;216;24812;-77
2021/12/27 07:05:33;;;;;;;;;;;2.40;1.40;;;3.50;100.00;94238.41;652998;216;24818;-75
2021/12/27 07:08:22;;;;;;;;;;;2.30;1.40;;;3.44;100.00;94243.69;655117;212;24807;-79
2021/12/27 07:11:07;;;;;;;;;;;2.30;1.40;;;3.53;100.00;94242.34;652688;216;25344;-74
2021/12/27 07:13:54;;;;;;;;;;;2.40;1.40;;;3.62;100.00;94243.25;607255;233;25564;-74
2021/12/27 07:16:35;;;;;;;;;;;2.50;1.40;;;3.73;100.00;94243.27;653586;212;24881;-76
2021/12/27 07:19:19;;;;;;;;;;;2.50;1.40;;;3.81;100.00;94241.81;654424;216;24817;-74
2021/12/27 07:22:01;;;;;;;;;;;2.60;1.40;;;3.81;100.00;94237.03;652886;216;24906;-77
2021/12/27 07:24:45;;;;;;;;;;;2.60;1.40;;;3.80;100.00;94239.34;652493;212;24833;-75
2021/12/27 07:27:26;;;;;;;;;;;2.60;1.40;;;3.73;100.00;94241.19;653206;212;24808;-75
2021/12/27 07:30:11;;;;;;;;;;;2.60;1.40;;;3.78;100.00;94236.44;653457;216;25259;-75
2021/12/27 07:32:52;;;;;;;;;;;2.70;1.40;;;3.97;100.00;94230.69;652702;216;24819;-75
2021/12/27 07:35:51;;;;;;;;;;;2.80;1.40;;;3.97;100.00;94232.09;653289;212;24817;-75
2021/12/27 07:38:32;;;;;;;;;;;2.80;1.40;;;4.02;100.00;94230.72;653693;216;24821;-75
2021/12/27 07:41:13;;;;;;;;;;;2.80;1.40;;;4.11;100.00;94230.86;652400;212;25121;-74
2021/12/27 07:43:56;;;;;;;;;;;2.90;1.40;;;4.14;100.00;94233.92;653068;212;24754;-74
2021/12/27 07:46:40;;;;;;;;;;;2.80;1.40;;;4.05;100.00;94229.86;654001;216;24714;-75
2021/12/27 07:49:20;;;;;;;;;;;2.60;1.40;;;3.86;100.00;94234.53;654034;212;24821;-80
2021/12/27 07:52:03;;;;;;;;;;;2.50;1.40;;;4.05;100.00;94225.67;653217;216;24823;-75
2021/12/27 07:54:44;;;;;;;;;;;2.60;1.40;;;4.04;100.00;94229.13;652952;216;24802;-74
2021/12/27 07:57:29;;;;;;;;;;;2.70;1.40;;;3.85;100.00;94226.57;649396;216;24827;-74
2021/12/27 08:00:10;;;;;;;;;;;2.50;1.40;;;3.80;100.00;94226.55;653312;216;24814;-75
2021/12/27 08:02:52;;;;;;;;;;;2.40;1.40;;;3.72;100.00;94214.39;652006;216;24799;-75
2021/12/27 08:05:33;;;;;;;;;;;2.30;1.40;;;3.61;100.00;94216.68;651902;216;25216;-75
2021/12/27 08:08:14;;;;;;;;;;;2.30;1.40;;;3.60;100.00;94215.30;654048;216;24792;-75
2021/12/27 08:10:56;;;;;;;;;;;2.30;1.40;;;3.72;100.00;94220.07;648799;215;24729;-76
2021/12/27 08:13:37;;;;;;;;;;;2.40;1.40;;;3.72;100.00;94220.30;621980;227;24872;-75
2021/12/27 08:16:23;;;;;;;;;;;2.50;1.40;;;3.76;100.00;94215.23;654588;216;24815;-76
2021/12/27 08:19:00;;;;;;;;;;;2.50;1.40;;;3.93;100.00;94220.84;652772;212;24927;-75
2021/12/27 08:21:41;;;;;;;;;;;2.70;1.40;;;4.14;100.00;94214.08;653383;216;24814;-74
2021/12/27 08:24:22;;;;;;;;;;;2.80;1.40;;;4.24;100.00;94215.78;654164;212;24732;-74
2021/12/27 08:27:06;;;;;;;;;;;2.90;1.40;;;4.28;100.00;94212.58;653696;216;25020;-80
2021/12/27 08:29:53;;;;;;;;;;;2.90;1.40;;;4.26;100.00;94214.02;653824;216;25585;-74
2021/12/27 08:32:34;;;;;;;;;;;2.90;1.40;;;4.31;100.00;94212.31;648874;217;25367;-76
2021/12/27 08:35:51;;;;;;;1.20;0.75;;;2.90;1.40;;;4.53;100.00;94207.80;645624;216;32070;-74
2021/12/27 08:38:35;;;;;;;0.70;0.50;;;3.10;1.40;;;4.46;100.00;94200.73;647729;212;31546;-79
2021/12/27 08:41:27;;;;;;;0.70;0.52;;;3.20;1.40;;;4.46;100.00;94198.30;646692;212;32278;-74
2021/12/27 08:44:06;;;;;;;0.80;0.70;;;3.20;1.40;;;4.67;100.00;94198.86;647004;216;31640;-74
2021/12/27 08:46:47;;;;;;;0.62;0.62;;;3.20;1.40;;;4.79;100.00;94193.89;647036;216;31645;-75
2021/12/27 08:49:32;;;;;;;1.10;1.00;;;3.30;1.40;;;4.63;100.00;94190.21;619857;225;42490;-74
2021/12/27 08:52:14;;;;;;;0.80;0.80;;;3.40;1.40;;;4.74;100.00;94187.06;646300;212;31688;-74
2021/12/27 08:54:56;;;;;;;0.60;0.50;;;3.70;1.40;;;5.05;100.00;94193.04;646484;216;42151;-75
2021/12/27 08:57:40;;;;;;;;;;;4.00;1.40;;;5.55;100.00;94191.36;652994;216;24742;-75
2021/12/27 09:00:21;;;;;;;;;;;4.40;1.40;;;5.69;100.00;94193.79;653573;212;24973;-74
2021/12/27 09:03:06;;;;;;;;;;;4.60;1.40;;;5.68;100.00;94190.42;652661;212;24834;-75
2021/12/27 09:05:47;;;;;;;;;;;4.60;1.40;;;5.53;100.00;94183.60;652010;216;24922;-77
2021/12/27 09:08:29;;;;;;;;;;;4.60;1.40;;;5.54;100.00;94184.21;649632;215;24899;-74
2021/12/27 09:11:10;;;;;;;;;;;4.70;1.40;;;5.71;100.00;94180.04;653360;216;24847;-74
2021/12/27 09:13:51;;;;;;;;;;;4.90;1.40;;;5.64;100.00;94177.39;652363;212;24810;-75
2021/12/27 09:16:32;;;;;;;;;;;4.90;1.40;;;5.91;100.00;94175.08;654246;213;24816;-75
2021/12/27 09:19:14;;;;;;;;;;;5.20;1.40;;;5.93;100.00;94164.05;653138;216;24820;-74
2021/12/27 09:21:55;;;;;;;;;;;5.30;1.40;;;6.27;100.00;94166.53;652478;212;24925;-75
2021/12/27 09:24:39;;;;;;;;;;;5.60;1.40;;;6.63;100.00;94172.47;653530;216;24816;-75
2021/12/27 09:27:20;;;;;;;;;;;6.00;1.40;;;7.67;100.00;94171.06;653696;216;24866;-76
2021/12/27 09:30:02;;;;;;;;;;;6.90;1.40;;;7.77;100.00;94172.12;652817;216;24934;-75
2021/12/27 09:32:48;;;;;;;;;;;6.90;1.40;;;8.30;100.00;94170.89;652796;216;25035;-74
2021/12/27 09:35:58;;;;;;;1.30;1.20;;;9.10;1.40;;;9.95;100.00;94164.18;646435;216;31478;-77
2021/12/27 09:38:45;;;;;;;0.70;0.70;;;7.80;1.40;;;8.85;100.00;94168.39;642048;216;32160;-75
2021/12/27 09:41:35;;;;;;;1.40;1.10;;;6.80;1.40;;;8.44;100.00;94168.91;648859;212;31542;-75
2021/12/27 09:46:57;;;;;;;1.93;0.50;;;8.40;1.40;;;11.43;100.00;94161.83;647387;216;42867;-76
2021/12/27 09:49:45;;;;;;;2.00;0.80;;;11.50;1.40;;;11.76;100.00;94165.36;647085;213;31545;-77
2021/12/27 09:52:33;;;;;;;0.60;0.50;;;11.50;1.40;;;12.95;100.00;94160.31;645784;216;31552;-76
2021/12/27 09:55:14;;;;;;;1.95;0.60;;;11.80;1.40;;;13.13;100.00;94159.83;647309;216;31763;-76
2021/12/27 09:58:02;;;;;;;1.17;1.05;;;12.20;1.40;;;16.22;100.00;94151.00;619465;222;31850;-78
2021/12/27 10:00:44;;;;;;;2.22;1.20;;;13.50;1.40;;;18.39;99.35;94146.64;647705;216;31679;-79
2021/12/27 10:03:26;;;;;;;3.25;2.05;;;15.20;1.40;;;19.69;89.17;94146.72;647992;216;31570;-77
2021/12/27 10:06:10;;;;;;;1.80;0.90;;;15.00;1.40;;;18.05;87.63;94151.58;618939;226;32156;-78
2021/12/27 10:11:33;;;;;;;2.15;0.93;;;14.10;1.40;;;17.84;100.00;94152.59;646387;216;31571;-77
2021/12/27 10:14:21;;;;;;;2.22;1.60;;;13.90;1.40;;;19.56;100.00;94149.91;647957;212;31574;-79
2021/12/27 10:17:08;;;;;;;2.17;1.70;;;14.40;1.40;;;20.54;100.00;94147.55;631908;217;31794;-77
2021/12/27 10:19:49;;;;;;;3.25;2.20;;;14.50;1.40;;;19.57;100.00;94148.27;645798;215;32169;-76
2021/12/27 10:22:31;;;;;;;1.10;0.98;;;14.00;1.40;;;20.18;100.00;94143.58;646688;212;31560;-76
2021/12/27 10:25:16;;;;;;;1.30;0.70;;;14.80;1.40;;;21.26;78.32;94139.33;648437;216;31551;-78
2021/12/27 10:27:57;;;;;;;1.60;0.70;;;15.80;1.40;;;21.50;87.40;94145.24;619697;222;32039;-78
2021/12/27 10:30:44;;;;;;;1.33;0.80;;;16.10;1.40;;;21.21;81.68;94137.90;619977;225;32368;-77
2021/12/27 10:35:52;;;;;;;0.60;0.50;;;16.70;1.40;;;20.20;64.30;94131.70;646544;215;31792;-77
2021/12/27 10:38:36;;;;;;;3.10;0.70;;;15.50;1.40;;;23.08;61.43;94123.97;648061;216;31479;-77
2021/12/27 10:44:02;;;;;;;0.55;0.40;;;15.50;1.40;;;20.69;61.20;94118.46;646160;216;31494;-77
2021/12/27 10:46:44;;;;;;;0.60;0.50;;;15.00;1.40;;;22.80;86.56;94109.91;646775;212;31773;-77
2021/12/27 10:49:26;;;;;;;1.40;0.50;;;16.80;1.40;;;26.35;66.02;94104.72;619803;226;31898;-77
2021/12/27 10:52:07;;;;;;;;;;;18.60;1.40;;;27.43;59.67;94097.58;653409;212;24835;-77
2021/12/27 10:55:01;;;;;;;;;;;19.10;1.40;;;26.58;45.43;94095.10;654698;212;24915;-79
2021/12/27 10:57:48;;;;;;;;;;;19.10;1.40;;;22.33;50.33;94098.22;652620;216;25033;-77
2021/12/27 11:00:29;;;;;;;;;;;16.90;1.40;;;20.92;58.54;94100.50;653107;216;24811;-75
2021/12/27 11:03:22;;;;;;;;;;;16.60;1.40;;;20.54;63.49;94087.97;653703;216;24921;-77
2021/12/27 11:06:03;;;;;;;;;;;15.50;1.40;;;20.90;76.36;94085.02;649364;212;25582;-76
2021/12/27 11:08:45;;;;;;;;;;;16.30;1.40;;;18.79;69.48;94082.80;652692;212;25053;-76
2021/12/27 11:11:26;;;;;;;;;;;15.60;1.40;;;20.30;68.64;94073.70;653763;213;24826;-77
2021/12/27 11:14:07;;;;;;;;;;;16.30;1.40;;;19.14;64.23;94071.96;654414;212;24739;-76
2021/12/27 11:16:48;;;;;;;;;;;15.50;1.40;;;20.19;81.57;94065.50;652436;212;24870;-76
2021/12/27 11:19:30;;;;;;;;;;;16.40;1.40;;;22.00;67.65;94058.90;653164;216;25282;-76
2021/12/27 11:22:14;;;;;;;;;;;17.40;1.40;;;24.86;54.72;94042.03;653201;212;24910;-75
2021/12/27 11:24:55;;;;;;;;;;;19.20;1.40;;;26.59;47.56;94035.68;652992;216;24848;-77
2021/12/27 11:27:38;;;;;;;;;;;19.30;1.40;;;25.84;43.40;94030.64;653769;216;24727;-76
2021/12/27 11:30:23;;;;;;;;;;;19.20;1.40;;;22.95;52.45;94027.94;654113;216;24822;-76
2021/12/27 11:36:06;;;;;;;0.80;0.50;;;17.40;1.40;;;19.58;60.43;94031.67;647453;212;32282;-76
2021/12/27 11:38:48;;;;;;;0.90;0.40;;;15.30;1.40;;;17.71;74.54;94037.27;646543;212;31490;-76
2021/12/27 11:41:33;;;;;;;2.25;0.50;;;15.30;1.40;;;18.06;74.69;94034.30;647902;216;31488;-76
2021/12/27 11:44:17;;;;;;;0.80;0.40;;;15.60;1.40;;;23.16;66.97;94025.97;647018;216;31486;-76
2021/12/27 11:47:00;;;;;;;0.70;0.68;;;18.10;1.40;;;21.91;51.88;94026.70;646860;216;42076;-76
2021/12/27 11:49:47;;;;;;;1.80;1.00;;;16.90;1.40;;;24.74;54.41;94017.59;646677;216;31720;-76
2021/12/27 11:52:29;;;;;;;0.70;0.50;;;19.10;1.40;;;27.24;45.60;94009.46;646800;212;31612;-76
2021/12/27 11:55:14;;;;;;;0.80;0.60;;;19.50;1.40;;;23.79;49.78;94016.66;645404;212;31399;-76
2021/12/27 11:57:58;;;;;;;0.70;0.62;;;17.60;1.40;;;25.13;49.41;94015.66;647399;212;31695;-76
2021/12/27 12:00:38;;;;;;;1.23;0.80;;;18.80;1.40;;;25.33;49.94;94014.53;646522;216;31524;-76
2021/12/27 12:03:20;;;;;;;1.55;0.80;;;18.80;1.40;;;25.24;49.95;94011.13;645620;216;33648;-76
2021/12/27 12:06:01;;;;;;;0.73;0.60;;;19.20;1.40;;;25.37;47.65;94011.14;615959;222;32098;-76
2021/12/27 12:08:48;;;;;;;1.00;0.90;;;17.60;1.40;;;21.64;61.53;94014.84;646867;216;31627;-76
2021/12/27 12:11:30;;;;;;;2.10;1.85;;;15.80;1.40;;;19.51;69.07;94011.87;646966;216;31523;-76
2021/12/27 12:14:22;;;;;;;2.37;1.70;;;14.60;1.40;;;21.36;69.08;94007.97;618882;226;31879;-76
2021/12/27 12:17:04;;;;;;;2.10;1.90;;;15.00;1.40;;;19.46;73.49;94004.45;647130;212;32230;-76
2021/12/27 12:19:48;;;;;;;1.77;1.67;;;14.20;1.40;;;18.27;75.63;93999.03;645858;212;31696;-75
2021/12/27 12:22:35;;;;;;;2.53;2.33;;;12.70;1.40;;;16.77;89.45;94002.39;646969;216;31590;-75
2021/12/27 12:27:57;;;;;;;3.10;2.50;;;12.50;1.40;;;18.09;82.63;93991.12;618865;226;31925;-75
2021/12/27 12:30:40;;;;;;;2.20;2.00;;;13.00;1.40;;;16.82;84.88;93991.38;646458;216;42892;-75
2021/12/27 12:36:00;;;;;;;2.85;2.30;;;12.90;1.40;;;16.60;89.55;93986.54;647311;212;31646;-75
2021/12/27 12:38:42;;;;;;;2.60;1.90;;;13.00;1.40;;;16.33;89.16;93981.95;646969;216;33563;-75
2021/12/27 12:41:23;;;;;;;3.10;1.77;;;12.80;1.40;;;15.85;92.49;93981.02;646768;216;31704;-76
2021/12/27 12:44:05;;;;;;;3.23;2.43;;;12.50;1.40;;;16.56;86.90;93979.16;646274;216;31548;-76
2021/12/27 12:46:49;;;;;;;3.20;2.27;;;12.60;1.40;;;16.87;85.73;93971.58;647145;212;42187;-76
2021/12/27 12:49:29;;;;;;;2.40;1.87;;;13.30;1.40;;;16.83;84.17;93967.80;647573;216;43078;-75
2021/12/27 12:52:11;;;;;;;1.50;1.40;;;13.80;1.40;;;17.24;79.66;93968.51;646146;212;31566;-75